Time;durP1;ratioP1;P1;durP2;ratioP2;P2;SDS_P1;SDS_P2;PMS_P1;PMS_P2;Temp;Humidity;BMP_temperature;BMP_pressure;BME280_temperature;BME280_humidity;BME280_pressure;Samples;Min_cycle;Max_cycle;Signal;HPM_P1;HPM_P2
2022/09/03 00:00:08;;;;;;;11.00;7.72;;;;;;;16.68;79.37;95212.13;5074787;28;20080;-87
2022/09/03 00:02:44;;;;;;;12.35;8.13;;;;;;;16.58;78.84;95184.50;5074068;28;20378;-87
2022/09/03 00:05:25;;;;;;;11.60;7.45;;;;;;;16.34;78.67;95154.66;5073167;28;20028;-87
2022/09/03 00:08:07;;;;;;;15.35;7.50;;;;;;;16.77;78.64;95221.75;5088440;28;20497;-87
2022/09/03 00:10:55;;;;;;;16.75;8.13;;;;;;;16.12;78.30;95133.31;5074110;28;20039;-87
2022/09/03 00:13:37;;;;;;;12.88;8.18;;;;;;;16.75;78.64;95232.00;5074596;28;20035;-87
2022/09/03 00:16:09;;;;;;;10.23;6.75;;;;;;;16.78;77.70;95211.84;5092231;28;20047;-87
2022/09/03 00:18:41;;;;;;;11.45;7.57;;;;;;;16.41;78.36;95171.03;5074329;28;20136;-87
2022/09/03 00:21:14;;;;;;;14.23;7.50;;;;;;;16.04;78.08;95112.69;5092372;28;20028;-87
2022/09/03 00:23:43;;;;;;;10.70;6.90;;;;;;;16.29;78.10;95157.47;5071257;28;20037;-87
2022/09/03 00:26:11;;;;;;;11.60;7.43;;;;;;;16.80;77.66;95217.66;5072741;28;20468;-87
2022/09/03 00:28:43;;;;;;;16.45;7.93;;;;;;;16.93;77.70;95214.09;5074436;28;20032;-87
2022/09/03 00:31:25;;;;;;;;;;;;;;;16.77;77.80;95221.75;5075449;28;20130;-87
2022/09/03 00:33:57;;;;;;;13.80;7.47;;;;;;;15.38;77.87;95007.47;5074618;28;19920;-87
2022/09/03 00:36:41;;;;;;;;;;;;;;;16.58;77.92;95215.84;5074763;28;20509;-87
2022/09/03 00:39:12;;;;;;;10.48;6.47;;;;;;;14.46;78.42;94898.72;5074701;28;19920;-87
2022/09/03 00:41:43;;;;;;;;;;;;;;;16.68;78.08;95212.91;5074692;28;20042;-87
2022/09/03 00:44:09;;;;;;;12.63;6.78;;;;;;;16.56;78.13;95212.66;5091134;28;19916;-87
2022/09/03 00:47:00;;;;;;;8.75;6.53;;;;;;;16.09;77.53;95140.09;5074534;28;20548;-87
2022/09/03 00:49:38;;;;;;;;;;;;;;;16.53;77.90;95224.00;5092574;28;20028;-87
2022/09/03 00:52:17;;;;;;;9.45;6.85;;;;;;;15.66;78.63;95115.00;5073925;28;19916;-87
2022/09/03 00:55:18;;;;;;;7.68;6.05;;;;;;;15.98;78.35;95148.69;5093668;28;20116;-87
2022/09/03 00:58:15;;;;;;;10.88;7.53;;;;;;;16.48;78.36;95226.81;5074457;28;20040;-87
2022/09/03 01:00:42;;;;;;;10.00;7.53;;;;;;;16.11;77.86;95129.06;5074198;28;20046;-87
2022/09/03 01:03:30;;;;;;;10.45;7.47;;;;;;;15.91;77.67;95113.56;5074662;28;20039;-87
2022/09/03 01:06:14;;;;;;;10.75;7.45;;;;;;;16.63;77.79;95214.94;5074262;28;20067;-86
2022/09/03 01:09:14;;;;;;;10.25;7.43;;;;;;;16.76;77.32;95208.69;5073961;28;20098;-86
2022/09/03 01:12:01;;;;;;;12.38;6.93;;;;;;;16.67;76.97;95222.03;5068279;28;20040;-86
2022/09/03 01:14:45;;;;;;;10.85;7.22;;;;;;;16.68;77.60;95218.28;5074895;28;20036;-86
2022/09/03 01:17:32;;;;;;;9.55;6.63;;;;;;;16.69;77.63;95219.06;5077356;28;20135;-86
2022/09/03 01:20:21;;;;;;;8.85;6.63;;;;;;;16.34;77.54;95177.94;5077668;28;20178;-86
2022/09/03 01:22:58;;;;;;;9.95;6.30;;;;;;;16.33;78.47;95209.28;5097473;28;20036;-86
2022/09/03 01:25:43;;;;;;;11.63;6.50;;;;;;;16.26;78.86;95213.50;5077681;28;20070;-87
2022/09/03 01:28:30;;;;;;;9.75;7.60;;;;;;;16.43;78.60;95214.38;5095564;28;20039;-87
2022/09/03 01:31:15;;;;;;;12.90;8.20;;;;;;;15.94;78.14;95142.38;5077469;28;20438;-87
2022/09/03 01:33:47;;;;;;;10.40;7.40;;;;;;;16.54;78.02;95226.38;5077583;28;20457;-87
2022/09/03 01:36:51;;;;;;;10.13;7.30;;;;;;;16.59;77.53;95241.50;5077483;28;20455;-86
2022/09/03 01:39:50;;;;;;;11.50;7.35;;;;;;;16.13;78.94;95229.34;5075403;28;20403;-85
2022/09/03 01:42:22;;;;;;;10.95;7.88;;;;;;;16.31;78.92;95248.16;5095186;28;20114;-85
2022/09/03 01:45:18;;;;;;;11.85;7.40;;;;;;;15.44;78.58;95118.47;5095210;28;20039;-85
2022/09/03 01:47:52;;;;;;;12.75;8.32;;;;;;;16.24;79.01;95243.25;5076625;28;20032;-86
2022/09/03 01:50:37;;;;;;;10.93;7.78;;;;;;;15.47;78.94;95147.28;5077168;28;20028;-87
2022/09/03 01:53:26;;;;;;;11.40;8.35;;;;;;;16.02;79.56;95236.03;5076575;28;20043;-87
2022/09/03 01:56:10;;;;;;;10.95;7.85;;;;;;;15.94;79.52;95225.31;5095094;28;20032;-86
2022/09/03 01:58:54;;;;;;;9.93;7.82;;;;;;;15.22;79.88;95126.50;5094309;28;20032;-86
2022/09/03 02:01:32;;;;;;;12.13;7.53;;;;;;;15.18;79.71;95107.59;5095230;28;20470;-86
2022/09/03 02:03:59;;;;;;;10.65;7.88;;;;;;;15.66;79.72;95171.94;5077146;28;20024;-86
2022/09/03 02:06:26;;;;;;;11.73;8.27;;;;;;;15.34;79.17;95116.84;5074507;28;20048;-86
2022/09/03 02:08:52;;;;;;;13.88;8.80;;;;;;;15.79;79.30;95186.34;5073044;28;20409;-85
2022/09/03 02:11:18;;;;;;;12.13;8.63;;;;;;;16.07;79.39;95233.25;5095228;28;20463;-86
2022/09/03 02:13:49;;;;;;;11.70;8.07;;;;;;;15.02;79.23;95066.34;5076931;28;20020;-86
2022/09/03 02:16:20;;;;;;;11.57;8.20;;;;;;;13.97;78.60;94912.91;5076386;28;20060;-86
2022/09/03 02:18:50;;;;;;;14.57;7.97;;;;;;;16.03;78.80;95237.59;5076625;28;20502;-86
2022/09/03 02:21:19;;;;;;;14.60;8.15;;;;;;;11.99;78.41;94598.41;5076356;28;20035;-86
2022/09/03 02:23:45;;;;;;;14.38;8.38;;;;;;;13.61;78.21;94841.72;5076072;28;20043;-86
2022/09/03 02:26:14;;;;;;;13.48;8.88;;;;;;;15.73;78.19;95188.34;5076342;28;20456;-87
2022/09/03 02:28:40;;;;;;;14.00;9.23;;;;;;;15.62;78.58;95170.19;5076089;28;20031;-86
2022/09/03 02:31:06;;;;;;;12.45;8.77;;;;;;;15.20;79.03;95126.81;5075925;28;20497;-87
2022/09/03 02:33:38;;;;;;;12.45;8.70;;;;;;;16.11;78.58;95247.56;5075984;28;20047;-86
2022/09/03 02:36:07;;;;;;;14.57;7.85;;;;;;;16.14;78.49;95257.69;5076012;28;20035;-86
2022/09/03 02:38:33;;;;;;;12.40;8.77;;;;;;;15.32;78.45;95111.03;5075850;28;20493;-86
2022/09/03 02:40:58;;;;;;;11.40;8.55;;;;;;;16.33;77.83;95227.22;5075991;28;20035;-86
2022/09/03 02:43:40;;;;;;;13.27;8.15;;;;;;;16.26;77.04;95224.19;5068148;28;20032;-86
2022/09/03 02:46:11;;;;;;;18.08;9.07;;;;;;;16.16;76.49;95204.66;5075802;28;20040;-86
2022/09/03 02:48:37;;;;;;;14.95;8.57;;;;;;;16.23;77.88;95259.59;5094264;28;20032;-86
2022/09/03 02:51:02;;;;;;;14.13;9.60;;;;;;;15.92;77.95;95230.94;5075501;28;20036;-86
2022/09/03 02:53:28;;;;;;;14.15;9.95;;;;;;;15.78;78.03;95190.13;5075531;28;20059;-86
2022/09/03 02:56:00;;;;;;;13.55;9.15;;;;;;;15.95;77.82;95248.25;5072057;28;20713;-86
2022/09/03 02:58:26;;;;;;;16.70;9.07;;;;;;;15.84;78.41;95237.03;5073309;28;20063;-86
2022/09/03 03:00:52;;;;;;;14.00;9.68;;;;;;;16.13;78.39;95264.13;5072511;28;20036;-86
2022/09/03 03:03:18;;;;;;;14.60;9.07;;;;;;;16.06;77.59;95241.56;5075284;28;20040;-86
2022/09/03 03:05:52;;;;;;;15.38;9.60;;;;;;;15.85;77.75;95224.44;5075142;28;20095;-85
2022/09/03 03:08:20;;;;;;;15.02;9.85;;;;;;;16.09;78.03;95259.69;5075514;28;20055;-86
2022/09/03 03:10:50;;;;;;;16.42;10.52;;;;;;;16.06;78.03;95268.31;5074933;28;20056;-86
2022/09/03 03:13:16;;;;;;;15.25;10.18;;;;;;;15.99;78.59;95262.59;5075537;28;20046;-87
2022/09/03 03:15:42;;;;;;;16.00;10.00;;;;;;;15.80;78.85;95239.50;5075064;28;20095;-86
2022/09/03 03:18:10;;;;;;;18.48;10.25;;;;;;;15.64;78.24;95168.03;5093851;28;20044;-86
2022/09/03 03:20:37;;;;;;;16.17;10.55;;;;;;;15.57;77.87;95164.97;5075045;28;20035;-86
2022/09/03 03:23:04;;;;;;;13.90;9.77;;;;;;;16.39;77.24;95253.56;5074976;28;20119;-86
2022/09/03 03:25:39;;;;;;;12.70;8.98;;;;;;;16.49;76.63;95247.13;5074935;28;20032;-87
2022/09/03 03:28:06;;;;;;;14.52;9.35;;;;;;;16.02;76.71;95205.84;5074834;28;20032;-86
2022/09/03 03:30:32;;;;;;;15.13;10.10;;;;;;;16.34;77.08;95250.22;5074922;28;20459;-86
2022/09/03 03:32:58;;;;;;;12.90;9.25;;;;;;;14.78;76.78;95005.25;5074712;28;20437;-87
2022/09/03 03:35:24;;;;;;;14.63;9.18;;;;;;;15.76;76.75;95160.22;5074407;28;20031;-85
2022/09/03 03:37:50;;;;;;;14.25;8.93;;;;;;;15.52;76.36;95125.75;5074145;28;20032;-87
2022/09/03 03:40:16;;;;;;;15.45;9.13;;;;;;;14.39;76.35;94951.72;5093282;28;20043;-87
2022/09/03 03:42:42;;;;;;;16.55;9.35;;;;;;;16.31;76.94;95256.97;5075130;28;20050;-86
2022/09/03 03:45:11;;;;;;;18.55;9.82;;;;;;;15.92;77.46;95212.22;5074963;28;20101;-86
2022/09/03 03:47:37;;;;;;;14.35;9.52;;;;;;;15.80;77.32;95191.38;5075794;28;20039;-86
2022/09/03 03:50:03;;;;;;;20.08;9.23;;;;;;;16.10;77.09;95229.16;5076537;28;20040;-86
2022/09/03 03:52:28;;;;;;;15.65;9.32;;;;;;;15.65;77.00;95188.28;5094098;28;20460;-86
2022/09/03 03:54:55;;;;;;;14.75;9.15;;;;;;;15.39;77.00;95135.44;5076849;28;20036;-86
2022/09/03 03:57:22;;;;;;;14.98;8.98;;;;;;;15.72;77.00;95202.81;5085043;28;20032;-87
2022/09/03 03:59:47;;;;;;;13.25;9.18;;;;;;;15.23;77.71;95144.91;5089137;28;20031;-86
2022/09/03 04:02:14;;;;;;;18.52;9.57;;;;;;;15.99;77.76;95258.06;5107883;28;20046;-86
2022/09/03 04:04:40;;;;;;;14.93;9.35;;;;;;;16.14;77.38;95256.88;5089588;28;20032;-86
2022/09/03 04:07:07;;;;;;;16.70;10.40;;;;;;;14.02;77.39;94953.59;5086995;28;20049;-85
2022/09/03 04:09:33;;;;;;;18.05;9.38;;;;;;;16.02;78.06;95257.44;5103956;28;20039;-86
2022/09/03 04:11:59;;;;;;;18.75;9.43;;;;;;;15.76;77.41;95208.34;5078058;28;20040;-85
2022/09/03 04:14:25;;;;;;;14.77;10.25;;;;;;;15.45;77.48;95163.63;5095958;28;20031;-86
2022/09/03 04:16:51;;;;;;;20.08;10.57;;;;;;;15.48;77.51;95172.91;5076601;28;20024;-86
2022/09/03 04:19:16;;;;;;;15.95;9.73;;;;;;;14.97;77.57;95096.63;5094324;28;20501;-87
2022/09/03 04:21:42;;;;;;;17.27;10.02;;;;;;;16.14;77.40;95263.03;5074794;28;20039;-86
2022/09/03 04:24:08;;;;;;;14.88;10.05;;;;;;;15.32;76.93;95123.59;5093431;28;20040;-87
2022/09/03 04:26:34;;;;;;;17.35;10.40;;;;;;;15.88;77.22;95229.97;5075286;28;20032;-87
2022/09/03 04:29:03;;;;;;;22.40;9.05;;;;;;;16.11;77.09;95262.84;5074862;28;20024;-86
2022/09/03 04:31:29;;;;;;;13.55;8.88;;;;;;;15.87;76.76;95215.00;5074745;28;20044;-87
2022/09/03 04:33:54;;;;;;;13.50;9.60;;;;;;;16.27;76.70;95273.94;5074479;28;20031;-86
2022/09/03 04:36:22;;;;;;;14.48;9.10;;;;;;;15.81;76.38;95189.50;5092505;28;20039;-86
2022/09/03 04:38:50;;;;;;;13.45;9.40;;;;;;;16.26;76.02;95285.75;5092536;28;20431;-87
2022/09/03 04:41:18;;;;;;;14.23;9.80;;;;;;;15.99;77.36;95282.13;5074111;28;20047;-87
2022/09/03 04:43:44;;;;;;;14.05;9.63;;;;;;;14.09;76.55;94969.97;5074241;28;20097;-87
2022/09/03 04:46:12;;;;;;;15.27;10.00;;;;;;;14.44;76.57;95002.28;5074481;28;20472;-87
2022/09/03 04:48:37;;;;;;;15.35;9.85;;;;;;;16.23;76.07;95278.34;5073900;28;20024;-87
2022/09/03 04:51:12;;;;;;;13.13;9.10;;;;;;;16.31;76.14;95312.41;5077323;28;20043;-87
2022/09/03 04:53:42;;;;;;;14.88;9.68;;;;;;;14.90;76.15;95122.94;5077151;28;20498;-87
2022/09/03 04:56:19;;;;;;;15.45;8.85;;;;;;;16.07;77.00;95310.03;5077840;28;20501;-87
2022/09/03 04:58:46;;;;;;;17.02;10.40;;;;;;;16.22;76.49;95317.69;5077815;28;20032;-86
2022/09/03 05:01:16;;;;;;;14.07;9.65;;;;;;;15.16;76.56;95143.75;5079695;28;20039;-87
2022/09/03 05:03:42;;;;;;;14.32;9.55;;;;;;;16.26;76.34;95309.81;5078696;28;20410;-86
2022/09/03 05:06:08;;;;;;;13.55;9.57;;;;;;;15.47;76.35;95202.59;5077069;28;20035;-86
2022/09/03 05:08:35;;;;;;;12.82;9.35;;;;;;;15.70;76.56;95249.69;5074315;28;20037;-88
2022/09/03 05:11:05;;;;;;;16.52;9.20;;;;;;;16.29;76.35;95325.28;5074547;28;20454;-86
2022/09/03 05:13:32;;;;;;;16.23;10.40;;;;;;;16.20;75.99;95280.53;5077962;28;20122;-87
2022/09/03 05:16:03;;;;;;;17.23;10.45;;;;;;;16.23;75.33;95267.63;5077853;28;20522;-86
2022/09/03 05:18:29;;;;;;;15.18;8.60;;;;;;;15.53;75.28;95172.00;5077916;28;20024;-86
2022/09/03 05:21:05;;;;;;;12.02;8.32;;;;;;;16.24;75.80;95317.38;5077459;28;20047;-86
2022/09/03 05:23:34;;;;;;;12.05;8.25;;;;;;;15.33;76.41;95222.13;5077480;28;20101;-87
2022/09/03 05:26:01;;;;;;;16.23;8.68;;;;;;;15.33;77.17;95221.38;5095703;28;20097;-86
2022/09/03 05:28:29;;;;;;;9.68;7.30;;;;;;;15.85;77.25;95328.75;5095900;28;20054;-86
2022/09/03 05:30:58;;;;;;;13.85;7.95;;;;;;;15.65;76.67;95263.94;5077969;28;20047;-86
2022/09/03 05:33:24;;;;;;;11.43;8.68;;;;;;;15.03;76.67;95188.88;5095377;28;20093;-87
2022/09/03 05:35:49;;;;;;;10.18;8.15;;;;;;;15.19;77.18;95248.09;5073911;28;20036;-87
2022/09/03 05:38:16;;;;;;;14.27;8.07;;;;;;;15.82;77.00;95333.59;5075899;28;20032;-87
2022/09/03 05:40:42;;;;;;;13.45;8.30;;;;;;;14.24;77.07;95075.53;5076877;28;20462;-86
2022/09/03 05:43:07;;;;;;;14.68;8.90;;;;;;;13.64;76.92;94994.91;5095548;28;20036;-87
2022/09/03 05:45:33;;;;;;;14.43;8.30;;;;;;;16.02;76.59;95340.34;5095694;28;20036;-86
2022/09/03 05:48:00;;;;;;;12.05;8.85;;;;;;;14.76;76.53;95158.78;5077286;28;20058;-87
2022/09/03 05:50:26;;;;;;;11.48;8.38;;;;;;;15.76;76.04;95283.22;5077269;28;20032;-87
2022/09/03 05:52:51;;;;;;;13.50;8.27;;;;;;;14.42;76.01;95057.84;5077257;28;20139;-86
2022/09/03 05:55:18;;;;;;;11.98;8.38;;;;;;;16.27;75.86;95338.16;5076922;28;21098;-86
2022/09/03 05:57:44;;;;;;;10.50;7.93;;;;;;;16.25;75.58;95338.47;5077453;28;20097;-86
2022/09/03 06:00:11;;;;;;;12.63;8.85;;;;;;;15.72;75.56;95260.84;5076346;28;20036;-86
2022/09/03 06:02:36;;;;;;;11.90;8.40;;;;;;;16.03;75.15;95283.09;5076708;28;20040;-86
2022/09/03 06:05:02;;;;;;;13.45;8.25;;;;;;;16.14;74.78;95307.72;5076974;28;20512;-86
2022/09/03 06:07:28;;;;;;;13.65;7.75;;;;;;;16.30;74.82;95332.22;5076694;28;20091;-87
2022/09/03 06:09:53;;;;;;;12.90;8.32;;;;;;;15.58;74.78;95204.75;5076381;28;20040;-86
2022/09/03 06:12:19;;;;;;;11.02;7.82;;;;;;;15.32;74.61;95180.50;5076545;28;20108;-85
2022/09/03 06:14:44;;;;;;;13.98;8.38;;;;;;;16.22;74.43;95325.72;5076774;28;20036;-86
2022/09/03 06:17:11;;;;;;;10.43;7.75;;;;;;;15.78;74.66;95259.66;5094688;28;20031;-86
2022/09/03 06:19:37;;;;;;;14.88;9.55;;;;;;;14.01;74.87;94973.34;5076041;28;20059;-86
2022/09/03 06:22:03;;;;;;;15.32;8.55;;;;;;;15.90;74.69;95245.72;5095331;28;20119;-86
2022/09/03 06:24:28;;;;;;;12.43;9.43;;;;;;;14.68;74.69;95081.00;5076740;28;20070;-86
2022/09/03 06:26:57;;;;;;;14.95;9.43;;;;;;;16.18;75.29;95312.13;5094785;28;20412;-87
2022/09/03 06:29:22;;;;;;;11.65;9.05;;;;;;;16.48;75.03;95355.31;5076179;28;20098;-86
2022/09/03 06:31:49;;;;;;;14.52;9.18;;;;;;;16.09;74.80;95275.75;5076489;28;20411;-86
2022/09/03 06:34:17;;;;;;;12.20;8.18;;;;;;;14.43;74.52;95016.72;5094887;28;20387;-86
2022/09/03 06:36:43;;;;;;;14.25;10.07;;;;;;;16.76;73.84;95346.06;5076443;28;20039;-86
2022/09/03 06:39:09;;;;;;;17.73;10.02;;;;;;;16.83;73.54;95322.28;5094642;28;20405;-86
2022/09/03 06:41:34;;;;;;;13.98;8.85;;;;;;;16.08;73.38;95234.81;5075757;28;20122;-87
2022/09/03 06:44:10;;;;;;;12.30;9.50;;;;;;;16.57;73.47;95279.28;5075989;28;20044;-86
2022/09/03 06:46:37;;;;;;;13.20;8.75;;;;;;;17.13;72.87;95326.03;5095093;28;20035;-86
2022/09/03 06:49:03;;;;;;;14.18;9.40;;;;;;;16.68;72.64;95263.78;5076587;28;20099;-86
2022/09/03 06:51:31;;;;;;;15.75;9.57;;;;;;;15.58;71.90;95097.84;5094153;28;20120;-86
2022/09/03 06:54:03;;;;;;;10.23;8.65;;;;;;;14.89;72.56;95013.78;5094373;28;20595;-87
2022/09/03 06:56:29;;;;;;;13.50;8.70;;;;;;;17.04;72.64;95343.16;5076062;28;20040;-87
2022/09/03 06:58:59;;;;;;;11.73;8.77;;;;;;;14.65;72.43;94961.47;5094229;28;20085;-86
2022/09/03 07:01:29;;;;;;;9.50;7.47;;;;;;;13.05;72.24;94716.97;5068010;28;20134;-87
2022/09/03 07:03:57;;;;;;;15.88;9.27;;;;;;;14.34;71.75;94877.13;5093116;28;20054;-86
2022/09/03 07:06:26;;;;;;;11.02;7.70;;;;;;;17.31;71.69;95357.16;5067512;28;20490;-86
2022/09/03 07:08:51;;;;;;;10.65;8.20;;;;;;;15.31;71.42;95055.22;5075927;28;20032;-86
2022/09/03 07:11:21;;;;;;;9.75;7.20;;;;;;;17.43;71.36;95363.78;5093864;28;20101;-86
2022/09/03 07:13:49;;;;;;;13.82;9.20;;;;;;;17.25;71.69;95326.22;5075572;28;20495;-86
2022/09/03 07:16:22;;;;;;;14.18;9.05;;;;;;;17.60;71.14;95370.00;5075109;28;20032;-86
2022/09/03 07:18:48;;;;;;;14.85;9.95;;;;;;;16.86;71.43;95248.56;5075391;28;20444;-86
2022/09/03 07:21:20;;;;;;;13.60;8.75;;;;;;;16.93;71.32;95283.72;5075067;28;20135;-86
2022/09/03 07:23:46;;;;;;;11.35;9.10;;;;;;;17.55;71.44;95370.13;5075323;28;20047;-87
2022/09/03 07:26:15;;;;;;;11.32;8.55;;;;;;;17.66;71.61;95373.34;5075266;28;20043;-87
2022/09/03 07:28:42;;;;;;;10.82;8.35;;;;;;;17.54;70.22;95343.63;5076567;28;20036;-87
2022/09/03 07:31:14;;;;;;;13.20;9.10;;;;;;;17.94;70.05;95387.25;5073512;28;20032;-86
2022/09/03 07:33:40;;;;;;;11.65;9.00;;;;;;;15.90;69.95;95071.88;5074569;28;20373;-86
2022/09/03 07:36:13;;;;;;;14.90;8.23;;;;;;;17.59;69.55;95333.53;5092409;28;20059;-86
2022/09/03 07:38:39;;;;;;;13.38;9.18;;;;;;;18.16;69.25;95389.00;5092847;28;20113;-86
2022/09/03 07:41:06;;;;;;;10.70;8.23;;;;;;;18.12;69.03;95384.25;5074599;28;20042;-88
2022/09/03 07:43:35;;;;;;;11.45;7.80;;;;;;;18.29;69.40;95383.47;5074054;28;20051;-86
2022/09/03 07:46:01;;;;;;;12.82;9.10;;;;;;;18.54;68.24;95384.53;5092627;28;20482;-88
2022/09/03 07:48:27;;;;;;;9.20;7.60;;;;;;;18.23;67.77;95352.53;5074572;28;20043;-86
2022/09/03 07:50:59;;;;;;;11.93;7.93;;;;;;;18.75;66.96;95385.50;5092873;28;20032;-87
2022/09/03 07:53:27;;;;;;;9.32;6.90;;;;;;;18.73;66.82;95381.53;5075596;28;20482;-87
2022/09/03 07:55:53;;;;;;;9.98;8.13;;;;;;;17.04;66.43;95104.72;5092332;28;20039;-86
2022/09/03 07:58:23;;;;;;;13.02;7.25;;;;;;;16.90;66.11;95081.56;5074385;28;20437;-86
2022/09/03 08:00:49;;;;;;;9.90;7.67;;;;;;;18.29;66.79;95320.94;5092596;28;20032;-87
2022/09/03 08:03:15;;;;;;;11.32;8.20;;;;;;;17.22;66.60;95143.81;5074492;28;20308;-86
2022/09/03 08:05:41;;;;;;;11.77;7.80;;;;;;;18.74;65.74;95367.00;5074883;28;20028;-86
2022/09/03 08:08:07;;;;;;;11.18;7.68;;;;;;;18.95;65.70;95394.75;5074331;28;20072;-87
2022/09/03 08:10:37;;;;;;;13.15;7.65;;;;;;;18.49;65.65;95313.00;5075193;28;20078;-86
2022/09/03 08:13:04;;;;;;;8.00;6.57;;;;;;;16.92;65.17;95086.59;5093026;28;20028;-86
2022/09/03 08:15:30;;;;;;;15.40;7.75;;;;;;;18.48;65.36;95316.00;5092158;28;20112;-86
2022/09/03 08:17:56;;;;;;;10.77;7.90;;;;;;;18.58;65.51;95331.03;5092207;28;20043;-87
2022/09/03 08:20:21;;;;;;;11.02;8.23;;;;;;;18.79;65.39;95370.31;5074445;28;20497;-87
2022/09/03 08:22:47;;;;;;;8.48;7.50;;;;;;;18.76;65.31;95378.22;5075029;28;20028;-87
2022/09/03 08:25:13;;;;;;;11.00;8.15;;;;;;;18.28;65.87;95281.78;5078086;28;20070;-87
2022/09/03 08:27:38;;;;;;;10.50;7.13;;;;;;;18.73;64.80;95333.19;5078676;28;20028;-87
2022/09/03 08:30:08;;;;;;;7.97;6.82;;;;;;;19.11;63.93;95363.56;5078945;28;20780;-87
2022/09/03 08:32:34;;;;;;;10.02;6.82;;;;;;;19.31;63.84;95397.00;5078704;28;20032;-87
2022/09/03 08:34:59;;;;;;;8.48;6.82;;;;;;;18.27;64.27;95239.94;5097280;28;20047;-88
2022/09/03 08:37:27;;;;;;;10.35;7.60;;;;;;;19.42;64.20;95392.84;5078714;28;20059;-87
2022/09/03 08:39:53;;;;;;;8.55;6.68;;;;;;;19.30;63.98;95367.75;5078425;28;20028;-88
2022/09/03 08:42:37;;;;;;;10.48;6.88;;;;;;;18.75;63.27;95253.06;5078103;28;20038;-87
2022/09/03 08:45:07;;;;;;;10.35;7.95;;;;;;;19.00;63.76;95264.78;5096229;28;20044;-87
2022/09/03 08:47:51;;;;;;;9.23;6.25;;;;;;;19.53;62.79;95352.97;5074822;28;20121;-87
2022/09/03 08:50:22;;;;;;;7.85;6.75;;;;;;;19.79;63.36;95379.69;5077537;28;20555;-87
2022/09/03 08:52:49;;;;;;;9.75;6.65;;;;;;;19.80;62.35;95381.28;5078648;28;20132;-87
2022/09/03 08:55:33;;;;;;;8.95;6.07;;;;;;;19.44;62.46;95357.56;5080030;28;20054;-87
2022/09/03 08:58:19;;;;;;;9.10;6.63;;;;;;;18.52;62.83;95229.13;5096380;28;20036;-87
2022/09/03 09:01:02;;;;;;;10.38;5.50;;;;;;;18.03;61.63;95128.53;5077533;28;20043;-88
2022/09/03 09:03:42;;;;;;;6.47;5.47;;;;;;;19.89;61.71;95392.78;5096176;28;20039;-86
2022/09/03 09:06:21;;;;;;;6.17;5.37;;;;;;;20.05;61.11;95393.78;5075869;28;20521;-86
2022/09/03 09:09:03;;;;;;;9.55;6.45;;;;;;;19.70;61.13;95338.59;5077317;28;20040;-86
2022/09/03 09:11:48;;;;;;;8.23;6.80;;;;;;;20.28;61.58;95386.16;5078058;28;20032;-87
2022/09/03 09:14:35;;;;;;;7.65;6.47;;;;;;;20.35;60.82;95392.63;5077838;28;20421;-87
2022/09/03 09:17:19;;;;;;;8.45;7.35;;;;;;;20.13;61.07;95402.91;5077345;28;20092;-86
2022/09/03 09:20:20;;;;;;;14.27;8.07;;;;;;;18.96;61.81;95218.97;5077778;28;20042;-86
2022/09/03 09:22:57;;;;;;;12.13;6.65;;;;;;;20.02;61.29;95392.50;5096092;28;20032;-87
2022/09/03 09:25:25;;;;;;;9.05;7.03;;;;;;;19.99;60.23;95322.38;5076792;28;20099;-87
2022/09/03 09:28:21;;;;;;;11.77;6.82;;;;;;;20.45;60.21;95383.31;5077799;28;20513;-87
2022/09/03 09:30:49;;;;;;;6.63;5.35;;;;;;;20.14;59.14;95315.63;5069566;28;20050;-87
2022/09/03 09:33:15;;;;;;;7.20;5.47;;;;;;;19.53;58.71;95221.16;5095973;28;20397;-87
2022/09/03 09:35:42;;;;;;;7.15;5.75;;;;;;;20.68;58.83;95399.91;5076571;28;20050;-87
2022/09/03 09:38:09;;;;;;;7.45;6.65;;;;;;;19.28;59.51;95155.66;5076974;28;20028;-88
2022/09/03 09:40:37;;;;;;;10.60;7.10;;;;;;;21.08;58.88;95395.53;5077647;28;20093;-87
2022/09/03 09:43:15;;;;;;;9.10;7.00;;;;;;;20.20;58.92;95265.84;5077618;28;20383;-87
2022/09/03 09:45:43;;;;;;;10.50;6.53;;;;;;;19.55;59.33;95141.69;5077148;28;20541;-87
2022/09/03 09:48:59;;;;;;;8.80;7.13;;;;;;;21.08;57.82;95322.72;5095486;28;20035;-87
2022/09/03 09:51:30;;;;;;;11.88;7.00;;;;;;;20.98;58.16;95281.97;5034939;28;20043;-87
2022/09/03 09:54:12;;;;;;;8.45;6.35;;;;;;;21.51;57.83;95394.28;5077053;28;20421;-86
2022/09/03 09:56:38;;;;;;;9.10;6.18;;;;;;;21.56;56.83;95402.13;5077353;28;20059;-86
2022/09/03 09:59:09;;;;;;;7.35;5.22;;;;;;;21.90;55.60;95409.75;5076412;28;20024;-87
2022/09/03 10:01:43;;;;;;;5.90;5.30;;;;;;;22.47;54.39;95391.75;5076869;28;20040;-87
2022/09/03 10:04:12;;;;;;;7.45;6.00;;;;;;;22.56;52.52;95324.84;5094408;28;20067;-87
2022/09/03 10:06:54;;;;;;;6.47;5.70;;;;;;;23.59;50.79;95398.59;5076311;28;20115;-87
2022/09/03 10:09:22;;;;;;;6.65;5.07;;;;;;;23.38;49.78;95290.59;5079350;28;20036;-87
2022/09/03 10:12:04;;;;;;;6.53;4.80;;;;;;;24.21;48.58;95346.22;5076961;28;20032;-86
2022/09/03 10:14:36;;;;;;;6.70;5.13;;;;;;;25.46;47.05;95370.25;5094620;28;20081;-87
2022/09/03 10:17:39;;;;;;;8.07;5.95;;;;;;;25.91;45.30;95353.09;5076587;28;20043;-87
2022/09/03 10:20:31;;;;;;;4.63;4.22;;;;;;;26.29;43.29;95295.78;5038465;28;20112;-87
2022/09/03 10:23:28;;;;;;;7.10;4.70;;;;;;;27.48;42.31;95383.69;5094806;28;20039;-86
2022/09/03 10:26:08;;;;;;;4.70;3.95;;;;;;;27.06;41.64;95389.53;5096044;28;20032;-87
2022/09/03 10:28:40;;;;;;;5.55;4.22;;;;;;;24.97;43.28;95159.34;5095099;28;20036;-86
2022/09/03 10:31:16;;;;;;;6.07;4.82;;;;;;;27.27;41.50;95381.56;5077805;28;20071;-86
2022/09/03 10:33:54;;;;;;;6.25;5.00;;;;;;;27.42;40.58;95382.47;5095084;28;20034;-86
2022/09/03 10:36:49;;;;;;;5.72;4.85;;;;;;;26.93;41.09;95336.53;5076583;28;20451;-86
2022/09/03 10:39:31;;;;;;;4.47;4.00;;;;;;;27.10;41.15;95390.31;5048747;28;20438;-86
2022/09/03 10:42:05;;;;;;;4.32;3.92;;;;;;;27.28;40.73;95383.91;5094692;28;20544;-86
2022/09/03 10:44:52;;;;;;;4.40;4.00;;;;;;;27.34;40.73;95381.63;5065978;28;20036;-86
2022/09/03 10:47:49;;;;;;;8.20;4.90;;;;;;;27.01;40.23;95308.97;5074882;28;20483;-86
2022/09/03 10:50:29;;;;;;;5.88;4.63;;;;;;;27.82;39.46;95378.91;5075422;28;20024;-87
2022/09/03 10:53:03;;;;;;;8.00;4.68;;;;;;;28.10;39.10;95397.41;5076320;28;20038;-87
2022/09/03 10:55:37;;;;;;;7.75;4.88;;;;;;;27.64;40.23;95398.63;5075788;28;20036;-87
2022/09/03 10:58:36;;;;;;;5.13;4.63;;;;;;;27.60;39.74;95383.44;5075161;28;20040;-87
2022/09/03 11:01:31;;;;;;;4.78;4.28;;;;;;;27.70;39.54;95392.81;5075570;28;20078;-87
2022/09/03 11:04:20;;;;;;;5.60;3.75;;;;;;;27.70;39.82;95382.72;5094063;28;20056;-87
2022/09/03 11:06:52;;;;;;;6.03;3.95;;;;;;;26.96;40.67;95373.84;5075167;28;20590;-87
2022/09/03 11:09:28;;;;;;;6.75;4.30;;;;;;;26.98;41.24;95377.78;5074835;28;20047;-86
2022/09/03 11:12:03;;;;;;;5.30;4.43;;;;;;;26.47;42.33;95351.13;5074441;28;20028;-86
2022/09/03 11:14:45;;;;;;;4.78;4.38;;;;;;;26.67;40.82;95346.31;5085860;28;20371;-87
2022/09/03 11:17:20;;;;;;;4.85;4.35;;;;;;;26.85;40.39;95308.44;5092885;28;20066;-87
2022/09/03 11:20:21;;;;;;;4.93;4.43;;;;;;;27.61;40.18;95385.78;5075447;28;20051;-87
2022/09/03 11:22:51;;;;;;;4.75;3.85;;;;;;;26.80;40.28;95322.34;5088668;28;20039;-88
2022/09/03 11:25:22;;;;;;;4.57;4.18;;;;;;;27.57;39.89;95392.34;5093195;28;20494;-88
2022/09/03 11:28:11;;;;;;;4.97;4.30;;;;;;;27.84;39.71;95395.69;5074534;28;20030;-86
2022/09/03 11:30:56;;;;;;;4.82;3.95;;;;;;;27.85;39.81;95378.94;5093281;28;20516;-86
2022/09/03 11:33:24;;;;;;;6.97;4.25;;;;;;;28.07;38.80;95338.19;5075055;28;20034;-86
2022/09/03 11:36:01;;;;;;;7.28;4.55;;;;;;;28.45;38.40;95345.81;5075296;28;20053;-86
2022/09/03 11:38:31;;;;;;;7.95;4.35;;;;;;;26.61;40.64;95254.56;5067448;28;20039;-87
2022/09/03 11:40:59;;;;;;;6.23;4.13;;;;;;;26.97;40.54;95312.84;5075015;28;20421;-87
2022/09/03 11:43:31;;;;;;;4.65;4.03;;;;;;;27.59;40.54;95384.59;5074321;28;20042;-87
2022/09/03 11:46:25;;;;;;;9.20;4.75;;;;;;;28.11;39.83;95385.34;5093262;28;20032;-87
2022/09/03 11:49:12;;;;;;;5.05;4.32;;;;;;;27.36;39.39;95255.97;5093066;28;20079;-87
2022/09/03 11:51:40;;;;;;;4.93;4.43;;;;;;;28.42;39.15;95382.81;5093067;28;20028;-87
2022/09/03 11:54:12;;;;;;;8.65;4.80;;;;;;;29.08;38.44;95382.66;5074453;28;20032;-86